sensor_id;sensor_type;location;lat;lon;timestamp;P1;durP1;ratioP1;P2;durP2;ratioP2
47167;SDS011;32931;47.778;17.806;2023-09-08T00:00:59;10.45;;;5.40;;
47167;SDS011;32931;47.778;17.806;2023-09-08T00:03:25;13.45;;;5.35;;
47167;SDS011;32931;47.778;17.806;2023-09-08T00:05:51;13.63;;;6.32;;
47167;SDS011;32931;47.778;17.806;2023-09-08T00:08:17;13.70;;;6.20;;
47167;SDS011;32931;47.778;17.806;2023-09-08T00:10:44;10.75;;;5.93;;
47167;SDS011;32931;47.778;17.806;2023-09-08T00:13:10;12.50;;;6.03;;
47167;SDS011;32931;47.778;17.806;2023-09-08T00:15:36;13.13;;;6.18;;
47167;SDS011;32931;47.778;17.806;2023-09-08T00:18:02;12.75;;;6.20;;
47167;SDS011;32931;47.778;17.806;2023-09-08T00:20:29;15.80;;;6.28;;
47167;SDS011;32931;47.778;17.806;2023-09-08T00:22:55;12.90;;;6.15;;
47167;SDS011;32931;47.778;17.806;2023-09-08T00:25:21;11.20;;;6.72;;
47167;SDS011;32931;47.778;17.806;2023-09-08T00:27:47;16.42;;;6.22;;
47167;SDS011;32931;47.778;17.806;2023-09-08T00:30:13;12.38;;;6.45;;
47167;SDS011;32931;47.778;17.806;2023-09-08T00:32:40;19.00;;;6.85;;
47167;SDS011;32931;47.778;17.806;2023-09-08T00:35:06;16.52;;;6.47;;
47167;SDS011;32931;47.778;17.806;2023-09-08T00:37:35;11.18;;;6.38;;
47167;SDS011;32931;47.778;17.806;2023-09-08T00:40:02;11.07;;;6.15;;
47167;SDS011;32931;47.778;17.806;2023-09-08T00:42:28;17.50;;;6.25;;
47167;SDS011;32931;47.778;17.806;2023-09-08T00:44:54;16.45;;;6.45;;
47167;SDS011;32931;47.778;17.806;2023-09-08T00:47:21;12.20;;;5.85;;
47167;SDS011;32931;47.778;17.806;2023-09-08T00:49:47;17.48;;;6.25;;
47167;SDS011;32931;47.778;17.806;2023-09-08T00:52:14;16.73;;;6.07;;
47167;SDS011;32931;47.778;17.806;2023-09-08T00:54:40;13.77;;;6.20;;
47167;SDS011;32931;47.778;17.806;2023-09-08T00:57:07;10.07;;;5.97;;
47167;SDS011;32931;47.778;17.806;2023-09-08T00:59:34;16.63;;;7.18;;
47167;SDS011;32931;47.778;17.806;2023-09-08T01:02:01;14.55;;;7.18;;
47167;SDS011;32931;47.778;17.806;2023-09-08T01:04:28;14.25;;;7.10;;
47167;SDS011;32931;47.778;17.806;2023-09-08T01:06:55;16.83;;;7.25;;
47167;SDS011;32931;47.778;17.806;2023-09-08T01:09:22;14.27;;;6.97;;
47167;SDS011;32931;47.778;17.806;2023-09-08T01:11:49;10.48;;;6.53;;
47167;SDS011;32931;47.778;17.806;2023-09-08T01:14:19;14.02;;;7.18;;
47167;SDS011;32931;47.778;17.806;2023-09-08T01:16:46;17.42;;;7.25;;
47167;SDS011;32931;47.778;17.806;2023-09-08T01:19:13;19.27;;;7.68;;
47167;SDS011;32931;47.778;17.806;2023-09-08T01:26:54;18.25;;;7.22;;
47167;SDS011;32931;47.778;17.806;2023-09-08T01:29:21;13.43;;;6.55;;
47167;SDS011;32931;47.778;17.806;2023-09-08T01:31:50;15.85;;;7.03;;
47167;SDS011;32931;47.778;17.806;2023-09-08T01:34:17;16.38;;;6.78;;
47167;SDS011;32931;47.778;17.806;2023-09-08T01:36:44;20.27;;;6.82;;
47167;SDS011;32931;47.778;17.806;2023-09-08T01:39:11;19.55;;;7.13;;
47167;SDS011;32931;47.778;17.806;2023-09-08T01:41:37;13.35;;;6.13;;
47167;SDS011;32931;47.778;17.806;2023-09-08T01:44:03;10.13;;;5.93;;
47167;SDS011;32931;47.778;17.806;2023-09-08T01:46:33;14.07;;;6.15;;
47167;SDS011;32931;47.778;17.806;2023-09-08T01:49:00;12.20;;;6.22;;
47167;SDS011;32931;47.778;17.806;2023-09-08T01:51:26;10.18;;;5.93;;
47167;SDS011;32931;47.778;17.806;2023-09-08T01:53:52;12.32;;;6.00;;
47167;SDS011;32931;47.778;17.806;2023-09-08T01:56:18;15.77;;;5.70;;
47167;SDS011;32931;47.778;17.806;2023-09-08T01:58:44;12.32;;;6.47;;
47167;SDS011;32931;47.778;17.806;2023-09-08T02:01:11;11.85;;;6.57;;
47167;SDS011;32931;47.778;17.806;2023-09-08T02:03:37;11.73;;;6.05;;
47167;SDS011;32931;47.778;17.806;2023-09-08T02:06:03;14.30;;;6.20;;
47167;SDS011;32931;47.778;17.806;2023-09-08T02:08:29;17.10;;;6.63;;
47167;SDS011;32931;47.778;17.806;2023-09-08T02:10:55;9.80;;;5.65;;
47167;SDS011;32931;47.778;17.806;2023-09-08T02:13:21;11.07;;;6.13;;
47167;SDS011;32931;47.778;17.806;2023-09-08T02:15:47;15.20;;;6.60;;
47167;SDS011;32931;47.778;17.806;2023-09-08T02:18:14;13.23;;;6.07;;
47167;SDS011;32931;47.778;17.806;2023-09-08T02:20:40;11.05;;;6.07;;
47167;SDS011;32931;47.778;17.806;2023-09-08T02:23:06;13.65;;;6.20;;
47167;SDS011;32931;47.778;17.806;2023-09-08T02:25:32;13.85;;;6.63;;
47167;SDS011;32931;47.778;17.806;2023-09-08T02:27:58;17.17;;;6.18;;
47167;SDS011;32931;47.778;17.806;2023-09-08T02:30:25;12.23;;;6.78;;
47167;SDS011;32931;47.778;17.806;2023-09-08T02:32:51;20.15;;;7.43;;
47167;SDS011;32931;47.778;17.806;2023-09-08T02:35:17;15.27;;;6.38;;
47167;SDS011;32931;47.778;17.806;2023-09-08T02:37:43;13.77;;;5.95;;
47167;SDS011;32931;47.778;17.806;2023-09-08T02:40:09;10.02;;;6.10;;
47167;SDS011;32931;47.778;17.806;2023-09-08T02:42:35;15.68;;;6.78;;
47167;SDS011;32931;47.778;17.806;2023-09-08T02:45:02;14.18;;;7.10;;
47167;SDS011;32931;47.778;17.806;2023-09-08T02:47:28;19.35;;;7.30;;
47167;SDS011;32931;47.778;17.806;2023-09-08T02:49:54;16.33;;;6.72;;
47167;SDS011;32931;47.778;17.806;2023-09-08T02:52:20;16.88;;;6.85;;
47167;SDS011;32931;47.778;17.806;2023-09-08T02:54:46;19.15;;;6.28;;
47167;SDS011;32931;47.778;17.806;2023-09-08T02:57:13;11.55;;;6.32;;
47167;SDS011;32931;47.778;17.806;2023-09-08T02:59:39;15.27;;;7.15;;
47167;SDS011;32931;47.778;17.806;2023-09-08T03:02:05;14.23;;;7.20;;
47167;SDS011;32931;47.778;17.806;2023-09-08T03:04:31;18.75;;;8.15;;
47167;SDS011;32931;47.778;17.806;2023-09-08T03:06:57;14.82;;;7.47;;
47167;SDS011;32931;47.778;17.806;2023-09-08T03:09:23;17.55;;;8.57;;
47167;SDS011;32931;47.778;17.806;2023-09-08T03:11:49;14.27;;;8.18;;
47167;SDS011;32931;47.778;17.806;2023-09-08T03:14:15;12.70;;;6.50;;
47167;SDS011;32931;47.778;17.806;2023-09-08T03:16:42;12.48;;;7.53;;
47167;SDS011;32931;47.778;17.806;2023-09-08T03:19:08;14.27;;;7.60;;
47167;SDS011;32931;47.778;17.806;2023-09-08T03:21:34;11.63;;;6.28;;
47167;SDS011;32931;47.778;17.806;2023-09-08T03:24:00;14.07;;;6.85;;
47167;SDS011;32931;47.778;17.806;2023-09-08T03:26:26;14.20;;;6.70;;
47167;SDS011;32931;47.778;17.806;2023-09-08T03:28:52;13.45;;;6.80;;
47167;SDS011;32931;47.778;17.806;2023-09-08T03:31:18;12.05;;;7.15;;
47167;SDS011;32931;47.778;17.806;2023-09-08T03:33:44;13.85;;;7.22;;
47167;SDS011;32931;47.778;17.806;2023-09-08T03:36:10;13.38;;;7.25;;
47167;SDS011;32931;47.778;17.806;2023-09-08T03:38:37;10.85;;;6.88;;
47167;SDS011;32931;47.778;17.806;2023-09-08T03:41:03;13.07;;;7.38;;
47167;SDS011;32931;47.778;17.806;2023-09-08T03:43:32;12.73;;;6.53;;
47167;SDS011;32931;47.778;17.806;2023-09-08T03:45:58;19.52;;;7.88;;
47167;SDS011;32931;47.778;17.806;2023-09-08T03:48:25;15.65;;;7.60;;
47167;SDS011;32931;47.778;17.806;2023-09-08T03:50:51;17.48;;;8.20;;
47167;SDS011;32931;47.778;17.806;2023-09-08T03:53:17;13.00;;;7.20;;
47167;SDS011;32931;47.778;17.806;2023-09-08T03:55:43;17.45;;;7.88;;
47167;SDS011;32931;47.778;17.806;2023-09-08T03:58:09;14.35;;;7.95;;
47167;SDS011;32931;47.778;17.806;2023-09-08T04:00:35;18.90;;;8.15;;
47167;SDS011;32931;47.778;17.806;2023-09-08T04:03:02;14.55;;;7.40;;
47167;SDS011;32931;47.778;17.806;2023-09-08T04:05:29;18.15;;;7.78;;
47167;SDS011;32931;47.778;17.806;2023-09-08T04:07:55;18.50;;;8.20;;
47167;SDS011;32931;47.778;17.806;2023-09-08T04:10:21;14.50;;;7.18;;
47167;SDS011;32931;47.778;17.806;2023-09-08T04:12:47;11.57;;;7.07;;
47167;SDS011;32931;47.778;17.806;2023-09-08T04:15:14;15.07;;;7.50;;
47167;SDS011;32931;47.778;17.806;2023-09-08T04:17:40;15.00;;;7.60;;
47167;SDS011;32931;47.778;17.806;2023-09-08T04:20:06;16.90;;;7.55;;
47167;SDS011;32931;47.778;17.806;2023-09-08T04:22:35;14.10;;;7.07;;
47167;SDS011;32931;47.778;17.806;2023-09-08T04:25:02;12.15;;;7.50;;
47167;SDS011;32931;47.778;17.806;2023-09-08T04:27:28;9.95;;;7.15;;
47167;SDS011;32931;47.778;17.806;2023-09-08T04:29:54;18.58;;;7.38;;
47167;SDS011;32931;47.778;17.806;2023-09-08T04:32:20;14.60;;;7.82;;
47167;SDS011;32931;47.778;17.806;2023-09-08T04:34:47;16.38;;;7.43;;
47167;SDS011;32931;47.778;17.806;2023-09-08T04:37:14;17.02;;;7.75;;
47167;SDS011;32931;47.778;17.806;2023-09-08T04:39:41;20.40;;;7.63;;
47167;SDS011;32931;47.778;17.806;2023-09-08T04:42:07;19.38;;;7.47;;
47167;SDS011;32931;47.778;17.806;2023-09-08T04:44:33;13.70;;;7.07;;
47167;SDS011;32931;47.778;17.806;2023-09-08T04:46:59;19.13;;;7.35;;
47167;SDS011;32931;47.778;17.806;2023-09-08T04:49:26;24.90;;;8.00;;
47167;SDS011;32931;47.778;17.806;2023-09-08T04:51:53;16.52;;;7.47;;
47167;SDS011;32931;47.778;17.806;2023-09-08T04:54:19;21.08;;;8.40;;
47167;SDS011;32931;47.778;17.806;2023-09-08T04:56:45;19.48;;;7.90;;
47167;SDS011;32931;47.778;17.806;2023-09-08T04:59:11;15.48;;;7.78;;
47167;SDS011;32931;47.778;17.806;2023-09-08T05:01:37;27.35;;;8.15;;
47167;SDS011;32931;47.778;17.806;2023-09-08T05:04:05;25.33;;;8.70;;
47167;SDS011;32931;47.778;17.806;2023-09-08T05:06:31;12.05;;;7.88;;
47167;SDS011;32931;47.778;17.806;2023-09-08T05:08:58;13.75;;;8.75;;
47167;SDS011;32931;47.778;17.806;2023-09-08T05:11:25;31.83;;;9.05;;
47167;SDS011;32931;47.778;17.806;2023-09-08T05:13:51;16.05;;;7.95;;
47167;SDS011;32931;47.778;17.806;2023-09-08T05:16:17;13.98;;;8.27;;
47167;SDS011;32931;47.778;17.806;2023-09-08T05:21:17;15.38;;;8.38;;
47167;SDS011;32931;47.778;17.806;2023-09-08T05:23:43;11.80;;;8.60;;
47167;SDS011;32931;47.778;17.806;2023-09-08T05:26:09;17.60;;;8.82;;
47167;SDS011;32931;47.778;17.806;2023-09-08T05:28:35;13.05;;;8.82;;
47167;SDS011;32931;47.778;17.806;2023-09-08T05:31:01;15.95;;;8.98;;
47167;SDS011;32931;47.778;17.806;2023-09-08T05:33:27;16.50;;;9.45;;
47167;SDS011;32931;47.778;17.806;2023-09-08T05:35:54;18.52;;;9.35;;
47167;SDS011;32931;47.778;17.806;2023-09-08T05:38:20;14.15;;;8.40;;
47167;SDS011;32931;47.778;17.806;2023-09-08T05:40:46;15.70;;;9.15;;
47167;SDS011;32931;47.778;17.806;2023-09-08T05:43:12;14.98;;;9.40;;
47167;SDS011;32931;47.778;17.806;2023-09-08T05:45:38;14.50;;;9.70;;
47167;SDS011;32931;47.778;17.806;2023-09-08T05:48:04;15.45;;;9.65;;
47167;SDS011;32931;47.778;17.806;2023-09-08T05:50:30;19.98;;;9.90;;
47167;SDS011;32931;47.778;17.806;2023-09-08T05:52:56;24.27;;;10.68;;
47167;SDS011;32931;47.778;17.806;2023-09-08T05:55:23;23.58;;;9.77;;
47167;SDS011;32931;47.778;17.806;2023-09-08T05:57:49;15.63;;;10.55;;
47167;SDS011;32931;47.778;17.806;2023-09-08T06:00:15;19.45;;;10.68;;
47167;SDS011;32931;47.778;17.806;2023-09-08T06:02:41;21.65;;;8.95;;
47167;SDS011;32931;47.778;17.806;2023-09-08T06:05:08;12.63;;;8.07;;
47167;SDS011;32931;47.778;17.806;2023-09-08T06:07:34;14.35;;;9.27;;
47167;SDS011;32931;47.778;17.806;2023-09-08T06:10:00;15.35;;;9.38;;
47167;SDS011;32931;47.778;17.806;2023-09-08T06:12:26;14.02;;;8.75;;
47167;SDS011;32931;47.778;17.806;2023-09-08T06:14:52;19.55;;;9.02;;
47167;SDS011;32931;47.778;17.806;2023-09-08T06:17:18;18.77;;;8.18;;
47167;SDS011;32931;47.778;17.806;2023-09-08T06:19:44;16.77;;;9.05;;
47167;SDS011;32931;47.778;17.806;2023-09-08T06:22:10;12.98;;;8.73;;
47167;SDS011;32931;47.778;17.806;2023-09-08T06:24:37;17.17;;;8.32;;
47167;SDS011;32931;47.778;17.806;2023-09-08T06:27:03;17.83;;;8.20;;
47167;SDS011;32931;47.778;17.806;2023-09-08T06:29:29;15.60;;;8.32;;
47167;SDS011;32931;47.778;17.806;2023-09-08T06:31:55;19.48;;;8.30;;
47167;SDS011;32931;47.778;17.806;2023-09-08T06:34:21;17.05;;;8.18;;
47167;SDS011;32931;47.778;17.806;2023-09-08T06:36:48;14.00;;;7.90;;
47167;SDS011;32931;47.778;17.806;2023-09-08T06:39:15;14.65;;;7.95;;
47167;SDS011;32931;47.778;17.806;2023-09-08T06:41:41;15.88;;;8.05;;
47167;SDS011;32931;47.778;17.806;2023-09-08T06:44:07;14.57;;;7.95;;
47167;SDS011;32931;47.778;17.806;2023-09-08T06:46:33;15.77;;;7.97;;
47167;SDS011;32931;47.778;17.806;2023-09-08T06:48:59;18.08;;;8.10;;
47167;SDS011;32931;47.778;17.806;2023-09-08T06:51:25;21.52;;;8.25;;
47167;SDS011;32931;47.778;17.806;2023-09-08T06:53:55;17.70;;;7.85;;
47167;SDS011;32931;47.778;17.806;2023-09-08T06:56:22;11.45;;;7.65;;
47167;SDS011;32931;47.778;17.806;2023-09-08T06:58:48;14.77;;;8.07;;
47167;SDS011;32931;47.778;17.806;2023-09-08T07:01:14;24.75;;;8.85;;
47167;SDS011;32931;47.778;17.806;2023-09-08T07:03:41;21.63;;;8.50;;
47167;SDS011;32931;47.778;17.806;2023-09-08T07:06:07;18.30;;;8.80;;
47167;SDS011;32931;47.778;17.806;2023-09-08T07:08:33;29.70;;;9.48;;
47167;SDS011;32931;47.778;17.806;2023-09-08T07:10:59;23.55;;;8.30;;
47167;SDS011;32931;47.778;17.806;2023-09-08T07:13:25;23.70;;;9.23;;
47167;SDS011;32931;47.778;17.806;2023-09-08T07:15:51;21.90;;;8.27;;
47167;SDS011;32931;47.778;17.806;2023-09-08T07:18:17;19.25;;;8.93;;
47167;SDS011;32931;47.778;17.806;2023-09-08T07:20:47;17.42;;;8.75;;
47167;SDS011;32931;47.778;17.806;2023-09-08T07:23:17;24.50;;;8.52;;
47167;SDS011;32931;47.778;17.806;2023-09-08T07:25:46;11.07;;;7.15;;
47167;SDS011;32931;47.778;17.806;2023-09-08T07:28:13;23.35;;;8.57;;
47167;SDS011;32931;47.778;17.806;2023-09-08T07:30:40;14.43;;;8.02;;
47167;SDS011;32931;47.778;17.806;2023-09-08T07:33:06;18.80;;;8.00;;
47167;SDS011;32931;47.778;17.806;2023-09-08T07:35:32;15.93;;;7.95;;
47167;SDS011;32931;47.778;17.806;2023-09-08T07:38:01;17.55;;;8.15;;
47167;SDS011;32931;47.778;17.806;2023-09-08T07:40:27;16.13;;;8.07;;
47167;SDS011;32931;47.778;17.806;2023-09-08T07:42:53;19.40;;;7.90;;
47167;SDS011;32931;47.778;17.806;2023-09-08T07:45:20;16.73;;;7.97;;
47167;SDS011;32931;47.778;17.806;2023-09-08T07:47:46;21.17;;;8.05;;
47167;SDS011;32931;47.778;17.806;2023-09-08T07:50:16;15.43;;;7.95;;
47167;SDS011;32931;47.778;17.806;2023-09-08T07:52:46;13.73;;;7.22;;
47167;SDS011;32931;47.778;17.806;2023-09-08T07:55:12;12.68;;;7.40;;
47167;SDS011;32931;47.778;17.806;2023-09-08T07:57:39;13.18;;;7.40;;
47167;SDS011;32931;47.778;17.806;2023-09-08T08:00:06;15.27;;;6.85;;
47167;SDS011;32931;47.778;17.806;2023-09-08T08:02:36;14.70;;;8.00;;
47167;SDS011;32931;47.778;17.806;2023-09-08T08:05:04;13.25;;;7.90;;
47167;SDS011;32931;47.778;17.806;2023-09-08T08:07:31;28.00;;;7.30;;
47167;SDS011;32931;47.778;17.806;2023-09-08T08:09:57;16.50;;;7.13;;
47167;SDS011;32931;47.778;17.806;2023-09-08T08:12:23;14.20;;;7.20;;
47167;SDS011;32931;47.778;17.806;2023-09-08T08:14:49;17.48;;;7.22;;
47167;SDS011;32931;47.778;17.806;2023-09-08T08:17:15;12.82;;;7.07;;
47167;SDS011;32931;47.778;17.806;2023-09-08T08:19:43;22.23;;;6.50;;
47167;SDS011;32931;47.778;17.806;2023-09-08T08:22:09;14.88;;;7.80;;
47167;SDS011;32931;47.778;17.806;2023-09-08T08:24:35;11.45;;;6.53;;
47167;SDS011;32931;47.778;17.806;2023-09-08T08:27:01;13.27;;;6.05;;
47167;SDS011;32931;47.778;17.806;2023-09-08T08:29:28;11.10;;;6.72;;
47167;SDS011;32931;47.778;17.806;2023-09-08T08:31:55;17.27;;;6.90;;
47167;SDS011;32931;47.778;17.806;2023-09-08T08:34:21;20.00;;;6.65;;
47167;SDS011;32931;47.778;17.806;2023-09-08T08:36:47;13.90;;;6.57;;
47167;SDS011;32931;47.778;17.806;2023-09-08T08:39:13;11.32;;;6.55;;
47167;SDS011;32931;47.778;17.806;2023-09-08T08:41:40;15.13;;;7.35;;
47167;SDS011;32931;47.778;17.806;2023-09-08T08:44:07;12.57;;;5.80;;
47167;SDS011;32931;47.778;17.806;2023-09-08T08:46:34;12.70;;;6.13;;
47167;SDS011;32931;47.778;17.806;2023-09-08T08:49:02;14.60;;;6.13;;
47167;SDS011;32931;47.778;17.806;2023-09-08T08:51:33;13.02;;;6.03;;
47167;SDS011;32931;47.778;17.806;2023-09-08T08:54:01;16.08;;;6.20;;
47167;SDS011;32931;47.778;17.806;2023-09-08T08:56:32;9.77;;;5.28;;
47167;SDS011;32931;47.778;17.806;2023-09-08T08:59:01;22.30;;;6.50;;
47167;SDS011;32931;47.778;17.806;2023-09-08T09:01:28;12.15;;;5.30;;
47167;SDS011;32931;47.778;17.806;2023-09-08T09:03:55;12.95;;;6.28;;
47167;SDS011;32931;47.778;17.806;2023-09-08T09:06:22;10.93;;;5.80;;
47167;SDS011;32931;47.778;17.806;2023-09-08T09:08:48;12.98;;;5.90;;
47167;SDS011;32931;47.778;17.806;2023-09-08T09:11:15;13.38;;;6.20;;
47167;SDS011;32931;47.778;17.806;2023-09-08T09:13:41;10.45;;;5.38;;
47167;SDS011;32931;47.778;17.806;2023-09-08T09:16:07;13.63;;;5.75;;
47167;SDS011;32931;47.778;17.806;2023-09-08T09:18:54;14.68;;;5.90;;
47167;SDS011;32931;47.778;17.806;2023-09-08T09:21:40;13.13;;;4.60;;
47167;SDS011;32931;47.778;17.806;2023-09-08T09:24:17;14.63;;;5.78;;
47167;SDS011;32931;47.778;17.806;2023-09-08T09:26:55;13.95;;;5.30;;
47167;SDS011;32931;47.778;17.806;2023-09-08T09:29:21;12.80;;;6.03;;
47167;SDS011;32931;47.778;17.806;2023-09-08T09:31:51;11.30;;;5.85;;
47167;SDS011;32931;47.778;17.806;2023-09-08T09:34:22;11.95;;;5.97;;
47167;SDS011;32931;47.778;17.806;2023-09-08T09:36:49;12.18;;;5.65;;
47167;SDS011;32931;47.778;17.806;2023-09-08T09:39:16;10.98;;;4.72;;
47167;SDS011;32931;47.778;17.806;2023-09-08T09:41:45;9.25;;;4.90;;
47167;SDS011;32931;47.778;17.806;2023-09-08T09:44:11;10.15;;;4.75;;
47167;SDS011;32931;47.778;17.806;2023-09-08T09:46:38;9.93;;;5.10;;
47167;SDS011;32931;47.778;17.806;2023-09-08T09:49:09;8.93;;;4.85;;
47167;SDS011;32931;47.778;17.806;2023-09-08T09:51:41;8.15;;;5.18;;
47167;SDS011;32931;47.778;17.806;2023-09-08T09:54:09;8.77;;;5.60;;
47167;SDS011;32931;47.778;17.806;2023-09-08T09:56:37;8.40;;;5.03;;
47167;SDS011;32931;47.778;17.806;2023-09-08T09:59:04;8.43;;;5.72;;
47167;SDS011;32931;47.778;17.806;2023-09-08T10:01:34;11.75;;;5.97;;
47167;SDS011;32931;47.778;17.806;2023-09-08T10:04:01;11.45;;;5.55;;
47167;SDS011;32931;47.778;17.806;2023-09-08T10:06:32;15.77;;;5.47;;
47167;SDS011;32931;47.778;17.806;2023-09-08T10:09:00;10.95;;;5.15;;
47167;SDS011;32931;47.778;17.806;2023-09-08T10:11:29;7.00;;;4.78;;
47167;SDS011;32931;47.778;17.806;2023-09-08T10:16:29;11.93;;;4.93;;
47167;SDS011;32931;47.778;17.806;2023-09-08T10:19:00;10.45;;;4.75;;
47167;SDS011;32931;47.778;17.806;2023-09-08T10:21:27;10.32;;;4.90;;
47167;SDS011;32931;47.778;17.806;2023-09-08T10:23:57;14.35;;;5.18;;
47167;SDS011;32931;47.778;17.806;2023-09-08T10:26:30;7.53;;;4.85;;
47167;SDS011;32931;47.778;17.806;2023-09-08T10:29:00;14.02;;;4.95;;
47167;SDS011;32931;47.778;17.806;2023-09-08T10:31:27;9.30;;;4.80;;
47167;SDS011;32931;47.778;17.806;2023-09-08T10:33:55;12.40;;;4.70;;
47167;SDS011;32931;47.778;17.806;2023-09-08T10:36:25;11.43;;;4.53;;
47167;SDS011;32931;47.778;17.806;2023-09-08T10:38:51;11.77;;;4.80;;
47167;SDS011;32931;47.778;17.806;2023-09-08T10:43:55;10.07;;;5.03;;
47167;SDS011;32931;47.778;17.806;2023-09-08T10:46:23;16.67;;;4.93;;
47167;SDS011;32931;47.778;17.806;2023-09-08T10:48:53;8.80;;;4.82;;
47167;SDS011;32931;47.778;17.806;2023-09-08T10:51:21;8.07;;;4.72;;
47167;SDS011;32931;47.778;17.806;2023-09-08T10:53:50;13.68;;;4.50;;
47167;SDS011;32931;47.778;17.806;2023-09-08T10:56:16;12.77;;;4.53;;
47167;SDS011;32931;47.778;17.806;2023-09-08T10:58:43;7.55;;;3.95;;
47167;SDS011;32931;47.778;17.806;2023-09-08T11:01:16;14.25;;;4.10;;
47167;SDS011;32931;47.778;17.806;2023-09-08T11:03:43;13.30;;;4.07;;
47167;SDS011;32931;47.778;17.806;2023-09-08T11:06:12;10.55;;;4.45;;
47167;SDS011;32931;47.778;17.806;2023-09-08T11:08:42;10.00;;;4.15;;
47167;SDS011;32931;47.778;17.806;2023-09-08T11:11:12;9.77;;;4.28;;
47167;SDS011;32931;47.778;17.806;2023-09-08T11:13:40;7.82;;;4.45;;
47167;SDS011;32931;47.778;17.806;2023-09-08T11:16:06;6.60;;;4.00;;
47167;SDS011;32931;47.778;17.806;2023-09-08T11:18:33;12.65;;;4.30;;
47167;SDS011;32931;47.778;17.806;2023-09-08T11:21:00;13.05;;;4.70;;
47167;SDS011;32931;47.778;17.806;2023-09-08T11:23:27;13.55;;;4.82;;
47167;SDS011;32931;47.778;17.806;2023-09-08T11:25:54;11.82;;;4.30;;
47167;SDS011;32931;47.778;17.806;2023-09-08T11:28:23;10.88;;;3.88;;
47167;SDS011;32931;47.778;17.806;2023-09-08T11:30:52;13.65;;;4.30;;
47167;SDS011;32931;47.778;17.806;2023-09-08T11:33:21;11.02;;;4.90;;
47167;SDS011;32931;47.778;17.806;2023-09-08T11:35:50;13.82;;;4.75;;
47167;SDS011;32931;47.778;17.806;2023-09-08T11:38:27;12.55;;;4.72;;
47167;SDS011;32931;47.778;17.806;2023-09-08T11:40:54;15.32;;;4.82;;
47167;SDS011;32931;47.778;17.806;2023-09-08T11:43:23;13.32;;;4.55;;
47167;SDS011;32931;47.778;17.806;2023-09-08T11:45:49;15.15;;;4.68;;
47167;SDS011;32931;47.778;17.806;2023-09-08T11:48:15;14.50;;;5.22;;
47167;SDS011;32931;47.778;17.806;2023-09-08T11:50:42;15.13;;;4.68;;
47167;SDS011;32931;47.778;17.806;2023-09-08T11:53:09;11.95;;;4.50;;
47167;SDS011;32931;47.778;17.806;2023-09-08T11:55:35;14.68;;;4.60;;
47167;SDS011;32931;47.778;17.806;2023-09-08T11:58:05;18.13;;;4.55;;
47167;SDS011;32931;47.778;17.806;2023-09-08T12:00:31;21.25;;;4.55;;
47167;SDS011;32931;47.778;17.806;2023-09-08T12:03:13;10.50;;;4.85;;
47167;SDS011;32931;47.778;17.806;2023-09-08T12:05:40;10.55;;;4.05;;
47167;SDS011;32931;47.778;17.806;2023-09-08T12:08:09;8.23;;;4.53;;
47167;SDS011;32931;47.778;17.806;2023-09-08T12:10:39;13.73;;;5.03;;
47167;SDS011;32931;47.778;17.806;2023-09-08T12:13:08;12.82;;;4.32;;
47167;SDS011;32931;47.778;17.806;2023-09-08T12:15:41;11.13;;;4.22;;
47167;SDS011;32931;47.778;17.806;2023-09-08T12:18:10;10.82;;;4.20;;
47167;SDS011;32931;47.778;17.806;2023-09-08T12:20:37;14.82;;;4.25;;
47167;SDS011;32931;47.778;17.806;2023-09-08T12:23:05;9.23;;;4.57;;
47167;SDS011;32931;47.778;17.806;2023-09-08T12:25:46;6.72;;;3.92;;
47167;SDS011;32931;47.778;17.806;2023-09-08T12:28:13;12.45;;;4.78;;
47167;SDS011;32931;47.778;17.806;2023-09-08T12:30:39;12.50;;;4.35;;
47167;SDS011;32931;47.778;17.806;2023-09-08T12:33:05;15.45;;;4.53;;
47167;SDS011;32931;47.778;17.806;2023-09-08T12:35:33;9.63;;;3.90;;
47167;SDS011;32931;47.778;17.806;2023-09-08T12:38:01;9.35;;;3.30;;
47167;SDS011;32931;47.778;17.806;2023-09-08T12:40:30;11.13;;;4.53;;
47167;SDS011;32931;47.778;17.806;2023-09-08T12:42:59;17.30;;;4.45;;
47167;SDS011;32931;47.778;17.806;2023-09-08T12:45:25;6.68;;;3.65;;
47167;SDS011;32931;47.778;17.806;2023-09-08T12:47:53;14.15;;;4.68;;
47167;SDS011;32931;47.778;17.806;2023-09-08T12:50:23;9.40;;;3.92;;
47167;SDS011;32931;47.778;17.806;2023-09-08T12:52:50;13.95;;;4.55;;
47167;SDS011;32931;47.778;17.806;2023-09-08T12:55:16;10.55;;;4.15;;
47167;SDS011;32931;47.778;17.806;2023-09-08T12:57:43;12.15;;;4.05;;
47167;SDS011;32931;47.778;17.806;2023-09-08T13:00:09;9.77;;;4.82;;
47167;SDS011;32931;47.778;17.806;2023-09-08T13:02:35;17.95;;;4.68;;
47167;SDS011;32931;47.778;17.806;2023-09-08T13:05:02;9.82;;;4.43;;
47167;SDS011;32931;47.778;17.806;2023-09-08T13:07:28;14.68;;;4.63;;
47167;SDS011;32931;47.778;17.806;2023-09-08T13:09:55;11.43;;;4.40;;
47167;SDS011;32931;47.778;17.806;2023-09-08T13:12:21;15.02;;;4.68;;
47167;SDS011;32931;47.778;17.806;2023-09-08T13:14:47;8.40;;;4.38;;
47167;SDS011;32931;47.778;17.806;2023-09-08T13:17:13;12.50;;;4.88;;
47167;SDS011;32931;47.778;17.806;2023-09-08T13:19:43;11.90;;;4.30;;
47167;SDS011;32931;47.778;17.806;2023-09-08T13:22:10;10.27;;;4.10;;
47167;SDS011;32931;47.778;17.806;2023-09-08T13:24:36;10.35;;;3.90;;
47167;SDS011;32931;47.778;17.806;2023-09-08T13:27:03;9.70;;;4.47;;
47167;SDS011;32931;47.778;17.806;2023-09-08T13:29:29;12.63;;;4.97;;
47167;SDS011;32931;47.778;17.806;2023-09-08T13:31:55;13.02;;;4.03;;
47167;SDS011;32931;47.778;17.806;2023-09-08T13:34:23;9.15;;;4.72;;
47167;SDS011;32931;47.778;17.806;2023-09-08T13:36:49;10.68;;;5.13;;
47167;SDS011;32931;47.778;17.806;2023-09-08T13:39:15;16.13;;;4.43;;
47167;SDS011;32931;47.778;17.806;2023-09-08T13:44:11;12.10;;;4.40;;
47167;SDS011;32931;47.778;17.806;2023-09-08T13:46:37;9.25;;;4.93;;
47167;SDS011;32931;47.778;17.806;2023-09-08T13:49:03;10.38;;;4.60;;
47167;SDS011;32931;47.778;17.806;2023-09-08T13:51:29;13.23;;;4.10;;
47167;SDS011;32931;47.778;17.806;2023-09-08T13:53:56;9.88;;;4.45;;
47167;SDS011;32931;47.778;17.806;2023-09-08T13:56:23;5.90;;;3.28;;
47167;SDS011;32931;47.778;17.806;2023-09-08T13:58:49;10.90;;;4.40;;
47167;SDS011;32931;47.778;17.806;2023-09-08T14:01:15;10.07;;;4.53;;
47167;SDS011;32931;47.778;17.806;2023-09-08T14:03:42;12.32;;;5.45;;
47167;SDS011;32931;47.778;17.806;2023-09-08T14:06:08;14.65;;;4.63;;
47167;SDS011;32931;47.778;17.806;2023-09-08T14:08:34;13.13;;;4.72;;
47167;SDS011;32931;47.778;17.806;2023-09-08T14:11:00;7.75;;;4.50;;
47167;SDS011;32931;47.778;17.806;2023-09-08T14:13:27;7.90;;;4.75;;
47167;SDS011;32931;47.778;17.806;2023-09-08T14:15:54;8.90;;;4.40;;
47167;SDS011;32931;47.778;17.806;2023-09-08T14:18:20;13.63;;;4.70;;
47167;SDS011;32931;47.778;17.806;2023-09-08T14:20:46;11.60;;;4.57;;
47167;SDS011;32931;47.778;17.806;2023-09-08T14:23:12;13.63;;;4.93;;
47167;SDS011;32931;47.778;17.806;2023-09-08T14:25:38;14.02;;;4.20;;
47167;SDS011;32931;47.778;17.806;2023-09-08T14:28:04;7.95;;;4.30;;
47167;SDS011;32931;47.778;17.806;2023-09-08T14:30:31;14.73;;;4.32;;
47167;SDS011;32931;47.778;17.806;2023-09-08T14:32:57;9.48;;;4.28;;
47167;SDS011;32931;47.778;17.806;2023-09-08T14:35:23;10.73;;;4.47;;
47167;SDS011;32931;47.778;17.806;2023-09-08T14:37:49;8.45;;;4.38;;